• Join FlightAware (Why Join?)
  • Login
  • US Flag 
07:55PM EDT


 

Airport Tracker/Info


-or-


 

Live Flight TrackerFlight Track Log ✈ FIN666 ✈ 02-Jan-2014 ✈ EKCH / CPH - EFHK / HEL

Flight Track Log - Related Links

Times and Time Zones

All times are in EST time to prevent confusion due to time zone crossing. See the FIN666 flight status page for this flight to view local times or setup timezone preferences in your user account.

Time Position Orientation Groundspeed Altitude Reporting Facility
EST Latitude Longitude Course Direction KTS MPH feet Rate Location/Type
07:26AM 55.9003 13.2410 49° Northeast  Level Estimated
07:27AM 55.9705 13.3886 50° Northeast  Level Estimated
07:28AM 56.0405 13.5368 50° Northeast  Level Estimated
07:29AM 56.1122 13.6896 50° Northeast  Level Estimated
07:30AM 56.1837 13.8430 50° Northeast  Level Estimated
07:31AM 56.2551 13.9969 50° Northeast  Level Estimated
07:32AM 56.3263 14.1515 50° Northeast  Level Estimated
07:33AM 56.3973 14.3066 50° Northeast  Level Estimated
07:34AM 56.4680 14.4622 51° Northeast  Level Estimated
07:35AM 56.5386 14.6185 51° Northeast  Level Estimated
07:36AM 56.6090 14.7753 51° Northeast  Level Estimated
07:37AM 56.6792 14.9328 51° Northeast  Level Estimated
07:38AM 56.7492 15.0908 51° Northeast  Level Estimated
07:39AM 56.8190 15.2494 51° Northeast  Level Estimated
07:40AM 56.8886 15.4086 51° Northeast  Level Estimated
07:41AM 56.9580 15.5684 51° Northeast  Level Estimated
07:42AM 57.0271 15.7288 52° Northeast  Level Estimated
07:43AM 57.0961 15.8898 52° Northeast  Level Estimated
07:44AM 57.1649 16.0513 52° Northeast  Level Estimated
07:45AM 57.2335 16.2135 52° Northeast  Level Estimated
07:46AM 57.3018 16.3763 52° Northeast  Level Estimated
07:47AM 57.3699 16.5397 52° Northeast  Level Estimated
07:48AM 57.4379 16.7037 52° Northeast  Level Estimated
07:49AM 57.5047 16.8661 53° Northeast  Level Estimated
07:50AM 57.5712 17.0290 53° Northeast  Level Estimated
07:51AM 57.6376 17.1925 53° Northeast  Level Estimated
07:52AM 57.7038 17.3567 53° Northeast  Level Estimated
07:53AM 57.7697 17.5214 53° Northeast  Level Estimated
07:54AM 57.8354 17.6868 53° Northeast  Level Estimated
07:55AM 57.9010 17.8527 53° Northeast  Level Estimated
07:56AM 57.9663 18.0192 53° Northeast  Level Estimated
07:57AM 58.0313 18.1864 54° Northeast  Level Estimated
07:58AM 58.0962 18.3542 54° Northeast  Level Estimated
07:59AM 58.1609 18.5225 54° Northeast  Level Estimated
08:00AM 58.2253 18.6915 54° Northeast  Level Estimated
08:01AM 58.2895 18.8611 54° Northeast  Level Estimated
08:02AM 58.3534 19.0313 54° Northeast  Level Estimated
08:03AM 58.4172 19.2021 54° Northeast  Level Estimated
08:04AM 58.4807 19.3736 55° Northeast  Level Estimated
08:05AM 58.5440 19.5457 55° Northeast  Level Estimated
08:06AM 58.6070 19.7183 55° Northeast  Level Estimated
08:07AM 58.6698 19.8917 55° Northeast  Level Estimated
08:08AM 58.7324 20.0656 55° Northeast  Level Estimated
08:09AM 58.7948 20.2402 55° Northeast  Level Estimated
08:10AM 58.8569 20.4153 56° Northeast  Level Estimated
08:11AM 58.9188 20.5912 56° Northeast  Level Estimated
08:12AM 58.9804 20.7676 56° Northeast  Level Estimated
08:13AM 59.0418 20.9447 56° Northeast  Level Estimated
08:14AM 59.1030 21.1224 56° Northeast  Level Estimated
08:15AM 59.1639 21.3008 56° Northeast  Level Estimated
08:16AM 59.2245 21.4797 56° Northeast  Level Estimated
08:17AM 59.2849 21.6594 57° Northeast  Level Estimated
08:18AM 59.3451 21.8396 57° Northeast  Level Estimated
08:19AM 59.4050 22.0205 57° Northeast  Level Estimated
08:20AM 59.4647 22.2020 57° Northeast  Level Estimated
08:21AM 59.5241 22.3842 57° Northeast  Level Estimated
08:22AM 59.5833 22.5670 57° Northeast  Level Estimated
08:23AM 59.6422 22.7505 58° Northeast  Level Estimated
08:24AM 59.7008 22.9346 58° Northeast  Level Estimated
08:25AM 59.7592 23.1193 58° Northeast  Level Estimated
08:26AM 59.8174 23.3047 58° Northeast  Level Estimated
08:27AM 59.8752 23.4908 58° Northeast  Level Estimated
08:28AM 59.9328 23.6775 58° Northeast  Level Estimated
08:29AM 59.9902 23.8648 58° Northeast  Level Estimated
08:30AM 60.0472 24.0528 59° Northeast  Level Estimated
08:31AM 60.1041 24.2414 59° Northeast  Level Estimated
08:32AM 60.1606 24.4307 59° Northeast  Level Estimated
08:33AM 60.2169 24.6206 59° Northeast  Level Estimated
08:34AM 60.2729 24.8112 59° Northeast  Level Estimated
08:35AM 60.3172 24.9633 59° Northeast  Level Estimated
08:36AM 60.3172 24.9633 37° Northeast  Level Estimated
08:37AM 60.3172 24.9633 37° Northeast  Level Estimated
08:38AM 60.3172 24.9633 37° Northeast  Level Estimated
08:39AM 60.3172 24.9633 37° Northeast  Level Estimated
08:40AM 60.3172 24.9633 37° Northeast  Level Estimated
08:41AM 60.3172 24.9633 37° Northeast  Level Estimated
08:42AM 60.3172 24.9633 37° Northeast  Level Estimated
08:43AM 60.3172 24.9633 37° Northeast  Level Estimated
08:44AM 60.3172 24.9633 37° Northeast  Level Estimated
08:45AM 60.3172 24.9633 37° Northeast  Level Estimated
08:46AM 60.3172 24.9633 37° Northeast  Level Estimated
08:47AM 60.3172 24.9633 37° Northeast  Level Estimated